Flag for India

Past Weather in Chittorgarh, Rajasthan, India — Yesterday and Last 2 Weeks

Currently: 61 °F. Haze. (Weather station: Jaipur / Sanganer, India). See more current weather

Past Weather in Chittorgarh — Graph

°F

Chittorgarh Temperature Yesterday

Maximum temperature yesterday: 79 °F (at 2:30 pm)
Minimum temperature yesterday: 50 °F (at 4:30 am)
Average temperature yesterday: 64 °F

High & Low Weather Summary for the Past Weeks

 TemperatureHumidityPressure
High81 °F (Jan 20, 4:00 pm)100% (Jan 7, 11:30 pm)30.09 "Hg (Jan 7, 11:30 pm)
Low46 °F (Jan 11, 7:00 am)12% (Jan 21, 3:00 pm)29.83 "Hg (Jan 16, 3:00 pm)
Average62 °F56%29.97 "Hg
* Reported Jan 7 11:30 pm — Jan 22 11:30 pm, Chittorgarh. Weather by CustomWeather, © 2021

Note: Actual official high and low records may vary slightly from our data, if they occured in-between our weather recording intervals... More about our weather records

Chittorgarh Weather History for the Previous 24 Hours

Scroll right to see more
 ConditionsComfort  
Time TempWeatherWind HumidityBarometerVisibility
11:30 pm
Fri, Jan 22
61 °FHaze.9 mph63%29.95 "Hg1 mi
11:00 pm61 °FHaze.10 mph68%29.95 "Hg1 mi
10:30 pm61 °FHaze.5 mph68%29.95 "Hg1 mi
10:00 pm63 °FHaze.9 mph59%29.95 "Hg1 mi
9:30 pm63 °FHaze.9 mph56%29.92 "Hg2 mi
9:00 pm64 °FHaze.5 mph46%29.92 "Hg2 mi
8:30 pm64 °FHaze.6 mph40%29.92 "Hg2 mi
6:30 pm70 °FHaze.5 mph33%29.92 "Hg2 mi
6:00 pm72 °FHaze.7 mph29%29.92 "Hg2 mi
5:30 pm75 °FHaze.7 mph25%29.92 "Hg2 mi
5:00 pm77 °FHaze.7 mph26%29.92 "Hg2 mi
4:30 pm77 °FHaze.7 mph22%29.89 "Hg2 mi
4:00 pm77 °FHaze.9 mph19%29.92 "Hg2 mi
3:30 pm77 °FHaze.7 mph21%29.92 "Hg2 mi
3:00 pm77 °FHaze.7 mph21%29.92 "Hg2 mi
2:30 pm79 °FHaze.8 mph20%29.92 "Hg2 mi
1:00 pm75 °FHaze.6 mph21%29.98 "Hg2 mi
12:30 pm75 °FHaze.7 mph21%30.01 "Hg2 mi
12:00 pm73 °FHaze.6 mph17%30.04 "Hg2 mi
10:30 am70 °FHaze.5 mph23%30.04 "Hg2 mi
10:00 am68 °FHaze.5 mph26%30.04 "Hg2 mi
9:30 am64 °FHaze.6 mph30%30.04 "Hg1 mi
9:00 am64 °FHaze.2 mph40%30.01 "Hg1 mi
8:30 am57 °FHaze.2 mph51%30.01 "Hg1 mi
8:00 am52 °FHaze.2 mph54%30.01 "Hg1 mi
7:30 am50 °FHaze.1 mph58%30.01 "Hg1 mi
7:00 am50 °FHaze.No wind58%30.01 "Hg1 mi
6:00 am50 °FHaze.2 mph54%29.98 "Hg1 mi
4:30 am50 °FHaze.1 mph54%29.98 "Hg1 mi
3:00 am52 °FHaze.No wind54%29.98 "Hg1 mi
2:30 am52 °FHaze.1 mph54%29.98 "Hg1 mi
1:30 am54 °FHaze.1 mph51%29.98 "Hg1 mi
12:30 am54 °FHaze.2 mph54%29.98 "Hg1 mi
Weather by CustomWeather, © 2021

See weather overview